Time;durP1;ratioP1;P1;durP2;ratioP2;P2;SDS_P1;SDS_P2;PMS_P1;PMS_P2;Temp;Humidity;BMP_temperature;BMP_pressure;BME280_temperature;BME280_humidity;BME280_pressure;Samples;Min_cycle;Max_cycle;Signal;HPM_P1;HPM_P2
2022/03/03 00:01:51;;;;;;;0.30;0.30;;;;;;;;;;5024682;28;19959;-76
2022/03/03 00:04:17;;;;;;;0.30;0.30;;;;;;;;;;5024263;28;20029;-75
2022/03/03 00:06:43;;;;;;;0.30;0.30;;;;;;;;;;5024587;28;20095;-77
2022/03/03 00:09:10;;;;;;;0.30;0.30;;;;;;;;;;5024280;28;20077;-77
2022/03/03 00:11:38;;;;;;;0.20;0.20;;;;;;;;;;5024165;28;20488;-78
2022/03/03 00:14:04;;;;;;;0.30;0.30;;;;;;;;;;5024613;28;20489;-79
2022/03/03 00:16:30;;;;;;;0.30;0.30;;;;;;;;;;5024007;28;20116;-78
2022/03/03 00:18:56;;;;;;;0.30;0.30;;;;;;;;;;5027418;28;20113;-79
2022/03/03 00:21:22;;;;;;;0.20;0.20;;;;;;;;;;5024044;28;20400;-79
2022/03/03 00:23:49;;;;;;;0.20;0.20;;;;;;;;;;5024300;28;20033;-79
2022/03/03 00:26:15;;;;;;;0.20;0.20;;;;;;;;;;5024452;28;20045;-79
2022/03/03 00:28:41;;;;;;;0.20;0.20;;;;;;;;;;5024279;28;20044;-80
2022/03/03 00:31:07;;;;;;;0.20;0.20;;;;;;;;;;5023551;28;20298;-78
2022/03/03 00:33:33;;;;;;;0.30;0.30;;;;;;;;;;5024154;28;20029;-77
2022/03/03 00:35:59;;;;;;;0.40;0.40;;;;;;;;;;5019836;28;20583;-78
2022/03/03 00:38:25;;;;;;;0.30;0.30;;;;;;;;;;5024263;28;20033;-78
2022/03/03 00:40:52;;;;;;;0.20;0.20;;;;;;;;;;5024361;28;20472;-78
2022/03/03 00:43:18;;;;;;;0.30;0.30;;;;;;;;;;5023969;28;20034;-77
2022/03/03 00:45:44;;;;;;;0.20;0.20;;;;;;;;;;5023851;28;20096;-78
2022/03/03 00:48:10;;;;;;;0.28;0.28;;;;;;;;;;5023871;28;20037;-77
2022/03/03 00:50:36;;;;;;;0.20;0.20;;;;;;;;;;5023618;28;21110;-77
2022/03/03 00:53:02;;;;;;;0.23;0.23;;;;;;;;;;5024356;28;20025;-78
2022/03/03 00:55:28;;;;;;;0.20;0.20;;;;;;;;;;5023472;28;20033;-78
2022/03/03 00:57:55;;;;;;;0.20;0.20;;;;;;;;;;5023324;28;20026;-78
2022/03/03 01:00:21;;;;;;;0.30;0.30;;;;;;;;;;5023472;28;20134;-78
2022/03/03 01:02:47;;;;;;;0.20;0.20;;;;;;;;;;5023568;28;20088;-78
2022/03/03 01:05:13;;;;;;;0.20;0.20;;;;;;;;;;5024214;28;20298;-78
2022/03/03 01:07:39;;;;;;;0.20;0.20;;;;;;;;;;5023593;28;20034;-78
2022/03/03 01:10:07;;;;;;;0.30;0.30;;;;;;;;;;5023427;28;20021;-78
2022/03/03 01:12:33;;;;;;;0.20;0.20;;;;;;;;;;5023183;28;20041;-78
2022/03/03 01:14:59;;;;;;;0.20;0.20;;;;;;;;;;5023189;28;20056;-78
2022/03/03 01:17:25;;;;;;;0.20;0.20;;;;;;;;;;5026534;28;20025;-78
2022/03/03 01:19:51;;;;;;;0.20;0.20;;;;;;;;;;5021846;28;20260;-78
2022/03/03 01:22:17;;;;;;;0.20;0.20;;;;;;;;;;5022632;28;20026;-78
2022/03/03 01:24:45;;;;;;;0.20;0.20;;;;;;;;;;5022895;28;20464;-78
2022/03/03 01:27:11;;;;;;;0.20;0.20;;;;;;;;;;5022854;28;20052;-78
2022/03/03 01:29:37;;;;;;;0.20;0.20;;;;;;;;;;5021335;28;20083;-78
2022/03/03 01:32:03;;;;;;;0.20;0.20;;;;;;;;;;5022009;28;20034;-78
2022/03/03 01:34:29;;;;;;;0.10;0.10;;;;;;;;;;5022682;28;20287;-78
2022/03/03 01:36:55;;;;;;;0.20;0.20;;;;;;;;;;5023100;28;20276;-77
2022/03/03 01:39:21;;;;;;;0.20;0.20;;;;;;;;;;5023237;28;20064;-77
2022/03/03 01:41:48;;;;;;;0.20;0.20;;;;;;;;;;5022690;28;20030;-77
2022/03/03 01:44:14;;;;;;;0.10;0.10;;;;;;;;;;5023113;28;20059;-77
2022/03/03 01:46:49;;;;;;;0.20;0.20;;;;;;;;;;5020923;28;20052;-77
2022/03/03 01:49:15;;;;;;;0.22;0.22;;;;;;;;;;5022463;28;20025;-78
2022/03/03 01:51:41;;;;;;;0.20;0.20;;;;;;;;;;5022789;28;20068;-78
2022/03/03 01:54:07;;;;;;;0.20;0.20;;;;;;;;;;5022699;28;20021;-79
2022/03/03 01:56:34;;;;;;;0.20;0.20;;;;;;;;;;5022335;28;20037;-79
2022/03/03 01:59:00;;;;;;;0.20;0.20;;;;;;;;;;5021852;28;20050;-80
2022/03/03 02:01:27;;;;;;;0.20;0.20;;;;;;;;;;5024701;28;20512;-80
2022/03/03 02:03:53;;;;;;;0.10;0.10;;;;;;;;;;5030617;28;20276;-79
2022/03/03 02:06:19;;;;;;;0.20;0.20;;;;;;;;;;5021795;28;20728;-79
2022/03/03 02:08:45;;;;;;;0.20;0.20;;;;;;;;;;5030715;28;20159;-79
2022/03/03 02:11:11;;;;;;;0.10;0.10;;;;;;;;;;5023194;28;20101;-79
2022/03/03 02:13:38;;;;;;;0.20;0.20;;;;;;;;;;5022570;28;20026;-79
2022/03/03 02:16:08;;;;;;;0.10;0.10;;;;;;;;;;5024748;28;20850;-79
2022/03/03 02:18:44;;;;;;;0.15;0.15;;;;;;;;;;5031415;28;20033;-79
2022/03/03 02:21:13;;;;;;;0.20;0.20;;;;;;;;;;5022629;28;20041;-79
2022/03/03 02:23:39;;;;;;;0.20;0.20;;;;;;;;;;5022464;28;20029;-79
2022/03/03 02:26:06;;;;;;;0.25;0.25;;;;;;;;;;5022883;28;20033;-78
2022/03/03 02:28:32;;;;;;;0.73;0.73;;;;;;;;;;5022148;28;20034;-79
2022/03/03 02:30:58;;;;;;;0.50;0.50;;;;;;;;;;5018200;28;20155;-79
2022/03/03 02:33:24;;;;;;;0.10;0.10;;;;;;;;;;5025034;28;20029;-79
2022/03/03 02:35:50;;;;;;;0.30;0.30;;;;;;;;;;5021941;28;20080;-79
2022/03/03 02:38:16;;;;;;;0.57;0.57;;;;;;;;;;5022461;28;20029;-80
2022/03/03 02:40:42;;;;;;;0.40;0.40;;;;;;;;;;5022641;28;20056;-80
2022/03/03 02:43:08;;;;;;;0.20;0.20;;;;;;;;;;5022280;28;20030;-80
2022/03/03 02:45:35;;;;;;;0.30;0.30;;;;;;;;;;5018148;28;20039;-79
2022/03/03 02:48:01;;;;;;;0.30;0.30;;;;;;;;;;5018096;28;20034;-79
2022/03/03 02:50:28;;;;;;;0.30;0.30;;;;;;;;;;5021885;28;20056;-80
2022/03/03 02:52:54;;;;;;;;;;;;;;;;;;5021385;28;20029;-79
2022/03/03 02:55:20;;;;;;;0.40;0.40;;;;;;;;;;5025725;28;19913;-79
2022/03/03 02:57:56;;;;;;;0.30;0.30;;;;;;;;;;5025659;28;20030;-79
2022/03/03 03:00:26;;;;;;;0.20;0.20;;;;;;;;;;5025419;28;20075;-80
2022/03/03 03:02:53;;;;;;;0.30;0.30;;;;;;;;;;5025355;28;20494;-79
2022/03/03 03:05:19;;;;;;;0.20;0.20;;;;;;;;;;5025752;28;20029;-78
2022/03/03 03:07:45;;;;;;;0.20;0.20;;;;;;;;;;5030549;28;20386;-76
2022/03/03 03:10:11;;;;;;;0.30;0.30;;;;;;;;;;5028836;28;20035;-76
2022/03/03 03:12:37;;;;;;;0.20;0.20;;;;;;;;;;5025199;28;20032;-76
2022/03/03 03:15:04;;;;;;;0.20;0.20;;;;;;;;;;5025411;28;20032;-76
2022/03/03 03:17:30;;;;;;;0.30;0.30;;;;;;;;;;5025069;28;20030;-77
2022/03/03 03:19:56;;;;;;;0.30;0.30;;;;;;;;;;5025636;28;20041;-75
2022/03/03 03:22:22;;;;;;;0.30;0.30;;;;;;;;;;5025111;28;20036;-76
2022/03/03 03:24:48;;;;;;;0.30;0.30;;;;;;;;;;5025258;28;20275;-77
2022/03/03 03:27:14;;;;;;;0.30;0.30;;;;;;;;;;5025050;28;20523;-76
2022/03/03 03:29:40;;;;;;;0.30;0.30;;;;;;;;;;5023357;28;20030;-76
2022/03/03 03:32:06;;;;;;;0.20;0.20;;;;;;;;;;5025600;28;20037;-76
2022/03/03 03:34:32;;;;;;;0.20;0.20;;;;;;;;;;5024812;28;20133;-76
2022/03/03 03:36:58;;;;;;;0.30;0.30;;;;;;;;;;5024591;28;20041;-76
2022/03/03 03:39:24;;;;;;;0.20;0.20;;;;;;;;;;5024885;28;20083;-76
2022/03/03 03:41:50;;;;;;;0.20;0.20;;;;;;;;;;5024646;28;20025;-76
2022/03/03 03:44:16;;;;;;;0.27;0.27;;;;;;;;;;5025003;28;20040;-77
2022/03/03 03:46:42;;;;;;;0.20;0.20;;;;;;;;;;5024728;28;20068;-76
2022/03/03 03:49:08;;;;;;;0.20;0.20;;;;;;;;;;5024894;28;20037;-76
2022/03/03 03:51:34;;;;;;;0.30;0.30;;;;;;;;;;5020235;28;20143;-76
2022/03/03 03:54:00;;;;;;;0.20;0.20;;;;;;;;;;5024311;28;20761;-76
2022/03/03 03:56:26;;;;;;;0.20;0.20;;;;;;;;;;5024731;28;20029;-77
2022/03/03 03:58:52;;;;;;;0.30;0.30;;;;;;;;;;5024714;28;20087;-77
2022/03/03 04:01:18;;;;;;;0.20;0.20;;;;;;;;;;5024437;28;20034;-76
2022/03/03 04:03:45;;;;;;;0.23;0.23;;;;;;;;;;5020164;28;20090;-77
2022/03/03 04:06:11;;;;;;;0.20;0.20;;;;;;;;;;5024590;28;20296;-78
2022/03/03 04:08:37;;;;;;;0.20;0.20;;;;;;;;;;5034195;28;20037;-79
2022/03/03 04:11:03;;;;;;;0.30;0.30;;;;;;;;;;5024656;28;20056;-80
2022/03/03 04:13:29;;;;;;;0.20;0.20;;;;;;;;;;5024238;28;20025;-80
2022/03/03 04:15:55;;;;;;;0.20;0.20;;;;;;;;;;5024201;28;20060;-79
2022/03/03 04:18:21;;;;;;;0.20;0.20;;;;;;;;;;5024377;28;20331;-79
2022/03/03 04:20:47;;;;;;;0.20;0.20;;;;;;;;;;5024496;28;20032;-79
2022/03/03 04:23:17;;;;;;;0.30;0.30;;;;;;;;;;5025255;28;20025;-79
2022/03/03 04:25:43;;;;;;;0.20;0.20;;;;;;;;;;5024226;28;20642;-80
2022/03/03 04:28:09;;;;;;;0.20;0.20;;;;;;;;;;5024225;28;20125;-79
2022/03/03 04:30:35;;;;;;;0.27;0.27;;;;;;;;;;5024158;28;20041;-79
2022/03/03 04:33:01;;;;;;;0.30;0.30;;;;;;;;;;5023684;28;20659;-79
2022/03/03 04:35:28;;;;;;;0.40;0.40;;;;;;;;;;5023639;28;21125;-79
2022/03/03 04:37:54;;;;;;;0.20;0.20;;;;;;;;;;5022113;28;20052;-79
2022/03/03 04:40:21;;;;;;;0.20;0.20;;;;;;;;;;5023456;28;20075;-76
2022/03/03 04:42:47;;;;;;;0.20;0.20;;;;;;;;;;5023622;28;20069;-77
2022/03/03 04:45:13;;;;;;;0.20;0.20;;;;;;;;;;5023502;28;20033;-78
2022/03/03 04:47:39;;;;;;;0.20;0.20;;;;;;;;;;5023423;28;20276;-78
2022/03/03 04:50:06;;;;;;;0.20;0.20;;;;;;;;;;5024239;28;20706;-80
2022/03/03 04:52:32;;;;;;;0.20;0.20;;;;;;;;;;5023567;28;20033;-80
2022/03/03 04:54:58;;;;;;;0.20;0.20;;;;;;;;;;5023649;28;20029;-79
2022/03/03 04:57:24;;;;;;;0.20;0.20;;;;;;;;;;5023886;28;20049;-80
2022/03/03 04:59:50;;;;;;;0.20;0.20;;;;;;;;;;5023424;28;20646;-80
2022/03/03 05:02:16;;;;;;;0.20;0.20;;;;;;;;;;5024088;28;20409;-79
2022/03/03 05:04:42;;;;;;;0.20;0.20;;;;;;;;;;5023796;28;20049;-80
2022/03/03 05:07:08;;;;;;;0.20;0.20;;;;;;;;;;5022566;28;20030;-77
2022/03/03 05:09:34;;;;;;;0.20;0.20;;;;;;;;;;5032457;28;20037;-77
2022/03/03 05:12:00;;;;;;;0.20;0.20;;;;;;;;;;5023633;28;20068;-77
2022/03/03 05:14:26;;;;;;;0.20;0.20;;;;;;;;;;5023498;28;20401;-76
2022/03/03 05:16:52;;;;;;;0.20;0.20;;;;;;;;;;5023330;28;20367;-76
2022/03/03 05:19:18;;;;;;;0.20;0.20;;;;;;;;;;5023051;28;20037;-76
2022/03/03 05:21:45;;;;;;;0.30;0.30;;;;;;;;;;5023116;28;20088;-76
2022/03/03 05:24:11;;;;;;;0.20;0.20;;;;;;;;;;5023085;28;20294;-77
2022/03/03 05:26:37;;;;;;;0.20;0.20;;;;;;;;;;5022999;28;20591;-77
2022/03/03 05:29:03;;;;;;;0.20;0.20;;;;;;;;;;5023796;28;20021;-76
2022/03/03 05:31:29;;;;;;;0.20;0.20;;;;;;;;;;5022927;28;20037;-76
2022/03/03 05:33:55;;;;;;;0.20;0.20;;;;;;;;;;5023139;28;20288;-77
2022/03/03 05:36:22;;;;;;;0.20;0.20;;;;;;;;;;5023015;28;20044;-76
2022/03/03 05:38:48;;;;;;;0.20;0.20;;;;;;;;;;5023549;28;20279;-78
2022/03/03 05:41:14;;;;;;;0.20;0.20;;;;;;;;;;5022373;28;20033;-78
2022/03/03 05:43:40;;;;;;;0.20;0.20;;;;;;;;;;5022874;28;20047;-77
2022/03/03 05:46:06;;;;;;;0.20;0.20;;;;;;;;;;5022694;28;20037;-77
2022/03/03 05:48:32;;;;;;;0.20;0.20;;;;;;;;;;5022902;28;20417;-77
2022/03/03 05:50:59;;;;;;;0.20;0.20;;;;;;;;;;5022859;28;20075;-78
2022/03/03 05:53:25;;;;;;;0.20;0.20;;;;;;;;;;5021493;28;20482;-79
2022/03/03 05:55:52;;;;;;;0.20;0.20;;;;;;;;;;5022961;28;20041;-80
2022/03/03 05:58:20;;;;;;;0.20;0.20;;;;;;;;;;5022347;28;20049;-80
2022/03/03 06:00:47;;;;;;;0.20;0.20;;;;;;;;;;5018617;28;20056;-79
2022/03/03 06:03:14;;;;;;;0.20;0.20;;;;;;;;;;5010732;28;20505;-79
2022/03/03 06:05:42;;;;;;;0.20;0.20;;;;;;;;;;5022752;28;20037;-78
2022/03/03 06:08:10;;;;;;;0.20;0.20;;;;;;;;;;5032614;28;20021;-77
2022/03/03 06:10:42;;;;;;;0.20;0.20;;;;;;;;;;5022899;28;20071;-78
2022/03/03 06:13:11;;;;;;;0.15;0.15;;;;;;;;;;5022603;28;20041;-77
2022/03/03 06:15:38;;;;;;;0.10;0.10;;;;;;;;;;5019411;28;20048;-77
2022/03/03 06:18:04;;;;;;;0.20;0.20;;;;;;;;;;5022174;28;20022;-77
2022/03/03 06:20:34;;;;;;;0.10;0.10;;;;;;;;;;5020766;28;20041;-76
2022/03/03 06:23:00;;;;;;;0.10;0.10;;;;;;;;;;5019268;28;20038;-76
2022/03/03 06:25:26;;;;;;;0.20;0.20;;;;;;;;;;5010868;28;20056;-76
2022/03/03 06:27:52;;;;;;;0.20;0.20;;;;;;;;;;5015481;28;20033;-76
2022/03/03 06:30:18;;;;;;;0.10;0.10;;;;;;;;;;5026214;28;20417;-76
2022/03/03 06:32:44;;;;;;;0.20;0.20;;;;;;;;;;5026253;28;20029;-76
2022/03/03 06:35:10;;;;;;;0.20;0.20;;;;;;;;;;5020970;28;20264;-76
2022/03/03 06:37:37;;;;;;;0.10;0.10;;;;;;;;;;5026926;28;20043;-75
2022/03/03 06:40:03;;;;;;;0.10;0.10;;;;;;;;;;5026169;28;20071;-77
2022/03/03 06:42:30;;;;;;;0.10;0.10;;;;;;;;;;5024969;28;20387;-77
2022/03/03 06:44:56;;;;;;;0.10;0.10;;;;;;;;;;5026176;28;20034;-77
2022/03/03 06:47:23;;;;;;;0.20;0.20;;;;;;;;;;5026391;28;20037;-76
2022/03/03 06:49:49;;;;;;;0.20;0.20;;;;;;;;;;5026565;28;20030;-77
2022/03/03 06:52:16;;;;;;;0.10;0.10;;;;;;;;;;5022694;28;20535;-82
2022/03/03 06:54:46;;;;;;;0.20;0.20;;;;;;;;;;5018018;28;20071;-82
2022/03/03 06:57:12;;;;;;;0.20;0.20;;;;;;;;;;5023244;28;20033;-82
2022/03/03 06:59:39;;;;;;;0.20;0.20;;;;;;;;;;5025779;28;20135;-85
2022/03/03 07:02:05;;;;;;;0.10;0.10;;;;;;;;;;5014094;28;20045;-84
2022/03/03 07:04:33;;;;;;;0.10;0.10;;;;;;;;;;5023808;28;20107;-84
2022/03/03 07:07:00;;;;;;;0.20;0.20;;;;;;;;;;5025819;28;20038;-77
2022/03/03 07:09:26;;;;;;;0.20;0.20;;;;;;;;;;5017826;28;20026;-78
2022/03/03 07:11:52;;;;;;;0.20;0.20;;;;;;;;;;5031368;28;20617;-78
2022/03/03 07:14:19;;;;;;;0.20;0.20;;;;;;;;;;5023518;28;20516;-77
2022/03/03 07:16:47;;;;;;;0.15;0.15;;;;;;;;;;5022118;28;20033;-78
2022/03/03 07:19:33;;;;;;;0.20;0.20;;;;;;;;;;5021452;28;20049;-76
2022/03/03 07:21:59;;;;;;;0.13;0.13;;;;;;;;;;5020247;28;20870;-76
2022/03/03 07:24:29;;;;;;;0.20;0.20;;;;;;;;;;5023045;28;20071;-76
2022/03/03 07:26:58;;;;;;;0.13;0.13;;;;;;;;;;5019201;28;20033;-77
2022/03/03 07:29:26;;;;;;;0.20;0.20;;;;;;;;;;5018998;28;20033;-77
2022/03/03 07:31:55;;;;;;;0.20;0.20;;;;;;;;;;5020819;28;20037;-77
2022/03/03 07:34:26;;;;;;;0.17;0.17;;;;;;;;;;5022449;28;20035;-76
2022/03/03 07:36:56;;;;;;;0.20;0.20;;;;;;;;;;5018355;28;20072;-78
2022/03/03 07:39:30;;;;;;;0.20;0.20;;;;;;;;;;5020899;28;20025;-77
2022/03/03 07:41:56;;;;;;;0.10;0.10;;;;;;;;;;5023078;28;20037;-80
2022/03/03 07:44:23;;;;;;;0.20;0.20;;;;;;;;;;5020428;28;20033;-76
2022/03/03 07:46:50;;;;;;;0.10;0.10;;;;;;;;;;5021314;28;20575;-76
2022/03/03 07:49:17;;;;;;;0.10;0.10;;;;;;;;;;5020486;28;20037;-76
2022/03/03 07:51:43;;;;;;;0.20;0.20;;;;;;;;;;5021483;28;20036;-76
2022/03/03 07:54:09;;;;;;;0.10;0.10;;;;;;;;;;5019758;28;20033;-76
2022/03/03 07:56:41;;;;;;;0.20;0.20;;;;;;;;;;5020719;28;20326;-76
2022/03/03 07:59:11;;;;;;;0.20;0.20;;;;;;;;;;5021326;28;20041;-76
2022/03/03 08:01:37;;;;;;;0.20;0.20;;;;;;;;;;5023162;28;20069;-76
2022/03/03 08:04:03;;;;;;;0.20;0.20;;;;;;;;;;5024001;28;20029;-76
2022/03/03 08:06:32;;;;;;;0.30;0.30;;;;;;;;;;5021809;28;20050;-78
2022/03/03 08:09:01;;;;;;;0.20;0.20;;;;;;;;;;5019178;28;20121;-78
2022/03/03 08:11:28;;;;;;;0.20;0.20;;;;;;;;;;5021799;28;20033;-78
2022/03/03 08:13:56;;;;;;;0.13;0.13;;;;;;;;;;5020985;28;20029;-78
2022/03/03 08:16:22;;;;;;;0.10;0.10;;;;;;;;;;5022138;28;20027;-78
2022/03/03 08:18:48;;;;;;;0.20;0.20;;;;;;;;;;5019419;28;20072;-78
2022/03/03 08:21:15;;;;;;;0.20;0.20;;;;;;;;;;5021794;28;20029;-79
2022/03/03 08:23:43;;;;;;;0.20;0.20;;;;;;;;;;5020143;28;20059;-78
2022/03/03 08:26:12;;;;;;;0.15;0.15;;;;;;;;;;5023981;28;20040;-79
2022/03/03 08:28:39;;;;;;;0.10;0.10;;;;;;;;;;5021023;28;20038;-79
2022/03/03 08:31:06;;;;;;;0.10;0.10;;;;;;;;;;5023952;28;20055;-80
2022/03/03 08:33:32;;;;;;;0.20;0.20;;;;;;;;;;5019617;28;20083;-80
2022/03/03 08:36:00;;;;;;;0.10;0.10;;;;;;;;;;5021274;28;20413;-81
2022/03/03 08:38:34;;;;;;;0.20;0.20;;;;;;;;;;5021038;28;20519;-80
2022/03/03 08:41:00;;;;;;;0.10;0.10;;;;;;;;;;5020630;28;20441;-79
2022/03/03 08:43:28;;;;;;;0.20;0.20;;;;;;;;;;5019934;28;20036;-79
2022/03/03 08:45:56;;;;;;;0.20;0.20;;;;;;;;;;5021093;28;20444;-79
2022/03/03 08:48:24;;;;;;;0.20;0.20;;;;;;;;;;5021564;28;20105;-82
2022/03/03 08:50:50;;;;;;;0.10;0.10;;;;;;;;;;5018998;28;20034;-80
2022/03/03 08:53:17;;;;;;;0.20;0.20;;;;;;;;;;5021407;28;20417;-79
2022/03/03 08:55:43;;;;;;;0.20;0.20;;;;;;;;;;5021564;28;20347;-80
2022/03/03 08:58:10;;;;;;;0.15;0.15;;;;;;;;;;5021598;28;20071;-79
2022/03/03 09:00:37;;;;;;;0.10;0.10;;;;;;;;;;5021225;28;20041;-79
2022/03/03 09:03:03;;;;;;;0.20;0.20;;;;;;;;;;5017529;28;20109;-79
2022/03/03 09:05:30;;;;;;;0.20;0.20;;;;;;;;;;5020240;28;20397;-78
2022/03/03 09:07:56;;;;;;;0.20;0.20;;;;;;;;;;5023176;28;20026;-77
2022/03/03 09:10:22;;;;;;;0.10;0.10;;;;;;;;;;5022438;28;21025;-77
2022/03/03 09:12:48;;;;;;;0.20;0.20;;;;;;;;;;5022872;28;20298;-77
2022/03/03 09:15:15;;;;;;;0.20;0.20;;;;;;;;;;5022895;28;20128;-77
2022/03/03 09:17:41;;;;;;;0.20;0.20;;;;;;;;;;5022318;28;20096;-77
2022/03/03 09:20:09;;;;;;;0.10;0.10;;;;;;;;;;5022594;28;20646;-76
2022/03/03 09:22:35;;;;;;;0.20;0.20;;;;;;;;;;5021078;28;20033;-77
2022/03/03 09:25:01;;;;;;;0.20;0.20;;;;;;;;;;5022218;28;20532;-78
2022/03/03 09:27:28;;;;;;;0.20;0.20;;;;;;;;;;5022691;28;20037;-78
2022/03/03 09:29:55;;;;;;;0.20;0.20;;;;;;;;;;5022362;28;20025;-80
2022/03/03 09:32:21;;;;;;;0.10;0.10;;;;;;;;;;5020444;28;20915;-76
2022/03/03 09:34:47;;;;;;;0.20;0.20;;;;;;;;;;5022659;28;20599;-76
2022/03/03 09:37:13;;;;;;;0.20;0.20;;;;;;;;;;5022469;28;20109;-81
2022/03/03 09:39:39;;;;;;;0.10;0.10;;;;;;;;;;5019889;28;20128;-77
2022/03/03 09:42:08;;;;;;;0.20;0.20;;;;;;;;;;5022690;28;20544;-80
2022/03/03 09:44:34;;;;;;;0.10;0.10;;;;;;;;;;5022165;28;20385;-78
2022/03/03 09:47:00;;;;;;;0.20;0.20;;;;;;;;;;5022190;28;20575;-76
2022/03/03 09:49:26;;;;;;;0.20;0.20;;;;;;;;;;5021772;28;20639;-77
2022/03/03 09:51:52;;;;;;;0.10;0.10;;;;;;;;;;5022473;28;20033;-76
2022/03/03 09:54:19;;;;;;;0.70;0.70;;;;;;;;;;5022413;28;20037;-77
2022/03/03 09:56:48;;;;;;;0.80;0.80;;;;;;;;;;5018367;28;20516;-76
2022/03/03 09:59:14;;;;;;;51.13;47.50;;;;;;;;;;5025691;28;20053;-76
2022/03/03 10:01:41;;;;;;;0.30;0.30;;;;;;;;;;5020418;28;20429;-76
2022/03/03 10:04:14;;;;;;;0.30;0.30;;;;;;;;;;5027603;28;20113;-76
2022/03/03 10:06:41;;;;;;;0.10;0.10;;;;;;;;;;5026733;28;20053;-77
2022/03/03 10:09:08;;;;;;;0.30;0.30;;;;;;;;;;5023140;28;20033;-77
2022/03/03 10:11:38;;;;;;;0.30;0.30;;;;;;;;;;5018688;28;20969;-77
2022/03/03 10:14:05;;;;;;;0.20;0.20;;;;;;;;;;5023539;28;20029;-77
2022/03/03 10:16:31;;;;;;;0.30;0.30;;;;;;;;;;5022024;28;20037;-76
2022/03/03 10:19:03;;;;;;;0.40;0.40;;;;;;;;;;5021413;28;20629;-76
2022/03/03 10:21:30;;;;;;;0.10;0.10;;;;;;;;;;5019310;28;20037;-77
2022/03/03 10:23:57;;;;;;;0.30;0.30;;;;;;;;;;5018165;28;20509;-76
2022/03/03 10:26:33;;;;;;;0.60;0.60;;;;;;;;;;5019833;28;21395;-77
2022/03/03 10:28:59;;;;;;;0.50;0.50;;;;;;;;;;5022515;28;20025;-77
2022/03/03 10:31:27;;;;;;;0.70;0.70;;;;;;;;;;5022057;28;20052;-77
2022/03/03 10:33:53;;;;;;;0.60;0.60;;;;;;;;;;5022173;28;20421;-77
2022/03/03 10:36:31;;;;;;;0.50;0.50;;;;;;;;;;5022188;28;20086;-77
2022/03/03 10:38:58;;;;;;;0.52;0.52;;;;;;;;;;5020585;28;20079;-77
2022/03/03 10:41:56;;;;;;;0.40;0.40;;;;;;;;;;5022184;28;20496;-77
2022/03/03 10:44:28;;;;;;;0.40;0.40;;;;;;;;;;4959487;28;20051;-77
2022/03/03 10:47:01;;;;;;;0.50;0.50;;;;;;;;;;4958569;28;20462;-77
2022/03/03 10:49:28;;;;;;;0.40;0.40;;;;;;;;;;4958057;28;20098;-77
2022/03/03 10:51:54;;;;;;;0.60;0.60;;;;;;;;;;4960104;28;20410;-77
2022/03/03 10:54:20;;;;;;;0.40;0.40;;;;;;;;;;4959202;28;20046;-76
2022/03/03 10:56:48;;;;;;;0.32;0.32;;;;;;;;;;4959717;28;20487;-77
2022/03/03 10:59:24;;;;;;;0.50;0.50;;;;;;;;;;4958564;28;20047;-76
2022/03/03 11:01:51;;;;;;;0.40;0.40;;;;;;;;;;4958134;28;20524;-76
2022/03/03 11:04:18;;;;;;;0.50;0.50;;;;;;;;;;4959335;28;20118;-77
2022/03/03 11:06:44;;;;;;;0.50;0.50;;;;;;;;;;4959395;28;20116;-77
2022/03/03 11:09:10;;;;;;;0.50;0.50;;;;;;;;;;4966025;28;20515;-77
2022/03/03 11:11:38;;;;;;;0.47;0.47;;;;;;;;;;4959514;28;20298;-77
2022/03/03 11:14:05;;;;;;;0.80;0.80;;;;;;;;;;4944540;28;20117;-78
2022/03/03 11:16:31;;;;;;;0.50;0.50;;;;;;;;;;4961727;28;20042;-77
2022/03/03 11:18:58;;;;;;;0.60;0.60;;;;;;;;;;4967696;28;20034;-77
2022/03/03 11:21:24;;;;;;;0.50;0.50;;;;;;;;;;5034092;28;20025;-77
2022/03/03 11:23:55;;;;;;;0.55;0.55;;;;;;;;;;5025219;28;20045;-77
2022/03/03 11:26:26;;;;;;;0.40;0.40;;;;;;;;;;5024646;28;20108;-77
2022/03/03 11:29:10;;;;;;;0.57;0.57;;;;;;;;;;5023591;28;20116;-77
2022/03/03 11:31:37;;;;;;;0.65;0.65;;;;;;;;;;5015976;28;20547;-77
2022/03/03 11:34:18;;;;;;;0.10;0.10;;;;;;;;;;5021347;28;20033;-77
2022/03/03 11:36:47;;;;;;;0.03;0.03;;;;;;;;;;5022274;28;20513;-76
2022/03/03 11:39:32;;;;;;;0.10;0.10;;;;;;;;;;5021903;28;20860;-77
2022/03/03 11:42:15;;;;;;;0.10;0.10;;;;;;;;;;5023203;28;20033;-77
2022/03/03 11:44:41;;;;;;;0.20;0.20;;;;;;;;;;5023925;28;20592;-77
2022/03/03 11:47:20;;;;;;;0.20;0.20;;;;;;;;;;5023759;28;20540;-77
2022/03/03 11:50:05;;;;;;;0.20;0.20;;;;;;;;;;5024760;28;20093;-77
2022/03/03 11:52:32;;;;;;;0.20;0.20;;;;;;;;;;5023605;28;20041;-76
2022/03/03 11:55:02;;;;;;;0.20;0.20;;;;;;;;;;5023271;28;20506;-77
2022/03/03 11:57:29;;;;;;;0.30;0.30;;;;;;;;;;5021763;28;20706;-77
2022/03/03 12:00:00;;;;;;;0.30;0.30;;;;;;;;;;5022897;28;20128;-77
2022/03/03 12:02:30;;;;;;;0.30;0.30;;;;;;;;;;5023815;28;20026;-77
2022/03/03 12:05:15;;;;;;;0.30;0.30;;;;;;;;;;5021669;28;20025;-77
2022/03/03 12:07:42;;;;;;;0.30;0.30;;;;;;;;;;5019706;28;20048;-78
2022/03/03 12:10:20;;;;;;;0.40;0.40;;;;;;;;;;5017114;28;20474;-77
2022/03/03 12:12:46;;;;;;;0.30;0.30;;;;;;;;;;5020314;28;20033;-78
2022/03/03 12:15:12;;;;;;;0.40;0.40;;;;;;;;;;5022251;28;20080;-78
2022/03/03 12:17:44;;;;;;;0.30;0.30;;;;;;;;;;5022293;28;20037;-78
2022/03/03 12:20:38;;;;;;;0.20;0.20;;;;;;;;;;5020821;28;20082;-78
2022/03/03 12:23:09;;;;;;;0.30;0.30;;;;;;;;;;5024117;28;20033;-78
2022/03/03 12:25:51;;;;;;;0.30;0.30;;;;;;;;;;5021411;28;20147;-78
2022/03/03 12:28:20;;;;;;;0.20;0.20;;;;;;;;;;5021268;28;20528;-78
2022/03/03 12:30:46;;;;;;;0.22;0.22;;;;;;;;;;5020978;28;20414;-78
2022/03/03 12:33:12;;;;;;;;;;;;;;;;;;5021045;28;20035;-78
2022/03/03 12:35:38;;;;;;;0.30;0.30;;;;;;;;;;5021471;28;19917;-78
2022/03/03 12:38:05;;;;;;;0.22;0.22;;;;;;;;;;5021125;28;20037;-78
2022/03/03 12:40:33;;;;;;;0.30;0.30;;;;;;;;;;5020456;28;20664;-78
2022/03/03 12:42:59;;;;;;;0.30;0.30;;;;;;;;;;5019585;28;20029;-78
2022/03/03 12:45:25;;;;;;;0.30;0.30;;;;;;;;;;5017888;28;20029;-78
2022/03/03 12:47:53;;;;;;;0.30;0.30;;;;;;;;;;5017057;28;20642;-78
2022/03/03 12:50:21;;;;;;;0.30;0.30;;;;;;;;;;5021741;28;20091;-79
2022/03/03 12:52:56;;;;;;;0.20;0.20;;;;;;;;;;5020103;28;20021;-78
2022/03/03 12:55:33;;;;;;;0.20;0.20;;;;;;;;;;5010074;28;20034;-78
2022/03/03 12:57:59;;;;;;;;;;;;;;;;;;5009102;28;20034;-78
2022/03/03 13:00:25;;;;;;;0.30;0.30;;;;;;;;;;5017405;28;19927;-78
2022/03/03 13:03:00;;;;;;;0.30;0.30;;;;;;;;;;5020961;28;20041;-78
2022/03/03 13:05:31;;;;;;;0.40;0.40;;;;;;;;;;5020537;28;20570;-78
2022/03/03 13:07:57;;;;;;;0.30;0.30;;;;;;;;;;5019369;28;20482;-78
2022/03/03 13:10:23;;;;;;;0.30;0.30;;;;;;;;;;5018444;28;20033;-78
2022/03/03 13:12:52;;;;;;;0.38;0.38;;;;;;;;;;5022516;28;20112;-78
2022/03/03 13:15:26;;;;;;;0.30;0.30;;;;;;;;;;5022846;28;20038;-78
2022/03/03 13:17:56;;;;;;;0.40;0.40;;;;;;;;;;5021475;28;20029;-77
2022/03/03 13:20:23;;;;;;;0.20;0.20;;;;;;;;;;5022815;28;20117;-78
2022/03/03 13:22:49;;;;;;;0.20;0.20;;;;;;;;;;5022109;28;20417;-78
2022/03/03 13:25:19;;;;;;;0.60;0.60;;;;;;;;;;5022067;28;20060;-77
2022/03/03 13:27:46;;;;;;;0.50;0.50;;;;;;;;;;5022425;28;20280;-77
2022/03/03 13:30:12;;;;;;;0.40;0.40;;;;;;;;;;5022665;28;20123;-77
2022/03/03 13:32:45;;;;;;;0.30;0.30;;;;;;;;;;5022964;28;20041;-78
2022/03/03 13:35:12;;;;;;;0.30;0.30;;;;;;;;;;5023012;28;20033;-78
2022/03/03 13:37:38;;;;;;;0.40;0.40;;;;;;;;;;5019883;28;20036;-78
2022/03/03 13:40:22;;;;;;;0.60;0.60;;;;;;;;;;5022277;28;20029;-78
2022/03/03 13:42:48;;;;;;;0.30;0.30;;;;;;;;;;5022460;28;20280;-78
2022/03/03 13:45:23;;;;;;;0.30;0.30;;;;;;;;;;5022312;28;20051;-79
2022/03/03 13:47:59;;;;;;;0.30;0.30;;;;;;;;;;5011064;28;20025;-78
2022/03/03 13:50:25;;;;;;;0.40;0.40;;;;;;;;;;5024687;28;20318;-78
2022/03/03 13:52:51;;;;;;;0.30;0.30;;;;;;;;;;5022744;28;20501;-78
2022/03/03 13:55:19;;;;;;;0.47;0.47;;;;;;;;;;5022227;28;20745;-77
2022/03/03 13:57:49;;;;;;;0.30;0.30;;;;;;;;;;5019238;28;20958;-78
2022/03/03 14:00:20;;;;;;;0.10;0.10;;;;;;;;;;5021771;28;20580;-78
2022/03/03 14:02:49;;;;;;;0.10;0.10;;;;;;;;;;5013263;28;20112;-78
2022/03/03 14:05:16;;;;;;;0.20;0.20;;;;;;;;;;5022143;28;20026;-78
2022/03/03 14:07:51;;;;;;;0.30;0.30;;;;;;;;;;5024182;28;20567;-78
2022/03/03 14:10:18;;;;;;;0.30;0.30;;;;;;;;;;5022588;28;20049;-78
2022/03/03 14:13:02;;;;;;;0.20;0.20;;;;;;;;;;5021997;28;20504;-79
2022/03/03 14:15:28;;;;;;;0.30;0.30;;;;;;;;;;5022178;28;20037;-79
2022/03/03 14:17:55;;;;;;;0.20;0.20;;;;;;;;;;5021625;28;20043;-79
2022/03/03 14:20:21;;;;;;;0.20;0.20;;;;;;;;;;5023029;28;20065;-78
2022/03/03 14:22:57;;;;;;;0.10;0.10;;;;;;;;;;5022452;28;20064;-78
2022/03/03 14:25:25;;;;;;;0.10;0.10;;;;;;;;;;5021523;28;20292;-78
2022/03/03 14:27:51;;;;;;;0.30;0.30;;;;;;;;;;5020155;28;20068;-77
2022/03/03 14:30:17;;;;;;;0.00;0.00;;;;;;;;;;5019256;28;20029;-78
2022/03/03 14:32:43;;;;;;;0.35;0.35;;;;;;;;;;5022125;28;20079;-77
2022/03/03 14:35:09;;;;;;;0.40;0.40;;;;;;;;;;5022336;28;20033;-78
2022/03/03 14:37:36;;;;;;;0.10;0.10;;;;;;;;;;5022262;28;20552;-78
2022/03/03 14:40:03;;;;;;;0.35;0.35;;;;;;;;;;5019747;28;20041;-78
2022/03/03 14:42:30;;;;;;;0.10;0.10;;;;;;;;;;5021867;28;20057;-78
2022/03/03 14:44:57;;;;;;;8.27;1.10;;;;;;;;;;5019590;28;20033;-79
2022/03/03 14:47:23;;;;;;;0.30;0.30;;;;;;;;;;5022410;28;20041;-78